sensor_id;sensor_type;location;lat;lon;timestamp;P1;durP1;ratioP1;P2;durP2;ratioP2
32399;SDS011;45045;45.440;9.178;2023-07-13T00:00:28;6.50;;;1.80;;
32399;SDS011;45045;45.440;9.178;2023-07-13T00:02:55;7.25;;;1.98;;
32399;SDS011;45045;45.440;9.178;2023-07-13T00:05:21;5.70;;;1.58;;
32399;SDS011;45045;45.440;9.178;2023-07-13T00:07:48;7.63;;;1.88;;
32399;SDS011;45045;45.440;9.178;2023-07-13T00:10:15;6.53;;;2.38;;
32399;SDS011;45045;45.440;9.178;2023-07-13T00:12:42;5.57;;;1.67;;
32399;SDS011;45045;45.440;9.178;2023-07-13T00:15:17;5.78;;;1.70;;
32399;SDS011;45045;45.440;9.178;2023-07-13T00:17:54;7.82;;;1.88;;
32399;SDS011;45045;45.440;9.178;2023-07-13T00:20:21;4.10;;;1.70;;
32399;SDS011;45045;45.440;9.178;2023-07-13T00:22:49;6.22;;;2.13;;
32399;SDS011;45045;45.440;9.178;2023-07-13T00:25:17;5.88;;;1.83;;
32399;SDS011;45045;45.440;9.178;2023-07-13T00:27:43;7.55;;;1.88;;
32399;SDS011;45045;45.440;9.178;2023-07-13T00:30:09;5.75;;;2.03;;
32399;SDS011;45045;45.440;9.178;2023-07-13T00:32:36;7.00;;;2.20;;
32399;SDS011;45045;45.440;9.178;2023-07-13T00:35:02;7.97;;;1.77;;
32399;SDS011;45045;45.440;9.178;2023-07-13T00:37:29;4.72;;;1.70;;
32399;SDS011;45045;45.440;9.178;2023-07-13T00:39:55;5.13;;;1.70;;
32399;SDS011;45045;45.440;9.178;2023-07-13T00:42:21;6.72;;;1.80;;
32399;SDS011;45045;45.440;9.178;2023-07-13T00:47:38;5.97;;;2.03;;
32399;SDS011;45045;45.440;9.178;2023-07-13T00:50:06;5.60;;;2.08;;
32399;SDS011;45045;45.440;9.178;2023-07-13T00:52:35;6.07;;;2.20;;
32399;SDS011;45045;45.440;9.178;2023-07-13T00:55:02;4.22;;;1.92;;
32399;SDS011;45045;45.440;9.178;2023-07-13T00:57:29;5.93;;;2.20;;
32399;SDS011;45045;45.440;9.178;2023-07-13T00:59:55;4.80;;;1.88;;
32399;SDS011;45045;45.440;9.178;2023-07-13T01:02:24;7.75;;;2.17;;
32399;SDS011;45045;45.440;9.178;2023-07-13T01:04:51;6.07;;;2.03;;
32399;SDS011;45045;45.440;9.178;2023-07-13T01:07:16;5.20;;;1.88;;
32399;SDS011;45045;45.440;9.178;2023-07-13T01:09:44;6.07;;;1.90;;
32399;SDS011;45045;45.440;9.178;2023-07-13T01:12:10;5.95;;;2.03;;
32399;SDS011;45045;45.440;9.178;2023-07-13T01:14:36;5.30;;;2.30;;
32399;SDS011;45045;45.440;9.178;2023-07-13T01:17:02;7.18;;;2.45;;
32399;SDS011;45045;45.440;9.178;2023-07-13T01:19:36;5.53;;;2.15;;
32399;SDS011;45045;45.440;9.178;2023-07-13T01:22:11;5.95;;;2.22;;
32399;SDS011;45045;45.440;9.178;2023-07-13T01:24:42;6.25;;;2.15;;
32399;SDS011;45045;45.440;9.178;2023-07-13T01:27:11;6.38;;;2.20;;
32399;SDS011;45045;45.440;9.178;2023-07-13T01:29:40;8.88;;;2.10;;
32399;SDS011;45045;45.440;9.178;2023-07-13T01:32:09;6.80;;;2.35;;
32399;SDS011;45045;45.440;9.178;2023-07-13T01:34:37;5.03;;;2.20;;
32399;SDS011;45045;45.440;9.178;2023-07-13T01:37:03;5.05;;;2.33;;
32399;SDS011;45045;45.440;9.178;2023-07-13T01:39:30;6.95;;;2.20;;
32399;SDS011;45045;45.440;9.178;2023-07-13T01:41:56;6.70;;;2.30;;
32399;SDS011;45045;45.440;9.178;2023-07-13T01:44:22;5.38;;;2.50;;
32399;SDS011;45045;45.440;9.178;2023-07-13T01:46:48;9.05;;;2.30;;
32399;SDS011;45045;45.440;9.178;2023-07-13T01:49:13;5.90;;;2.30;;
32399;SDS011;45045;45.440;9.178;2023-07-13T01:51:39;4.78;;;2.33;;
32399;SDS011;45045;45.440;9.178;2023-07-13T01:54:05;5.88;;;2.08;;
32399;SDS011;45045;45.440;9.178;2023-07-13T01:56:30;8.20;;;2.50;;
32399;SDS011;45045;45.440;9.178;2023-07-13T01:58:56;6.03;;;2.40;;
32399;SDS011;45045;45.440;9.178;2023-07-13T02:01:22;4.65;;;2.05;;
32399;SDS011;45045;45.440;9.178;2023-07-13T02:03:47;5.45;;;2.30;;
32399;SDS011;45045;45.440;9.178;2023-07-13T02:06:13;5.30;;;2.28;;
32399;SDS011;45045;45.440;9.178;2023-07-13T02:08:39;7.07;;;2.58;;
32399;SDS011;45045;45.440;9.178;2023-07-13T02:11:05;6.10;;;2.30;;
32399;SDS011;45045;45.440;9.178;2023-07-13T02:13:31;6.32;;;2.15;;
32399;SDS011;45045;45.440;9.178;2023-07-13T02:15:57;4.78;;;2.13;;
32399;SDS011;45045;45.440;9.178;2023-07-13T02:18:22;7.30;;;2.55;;
32399;SDS011;45045;45.440;9.178;2023-07-13T02:20:48;8.98;;;2.75;;
32399;SDS011;45045;45.440;9.178;2023-07-13T02:23:14;8.48;;;2.15;;
32399;SDS011;45045;45.440;9.178;2023-07-13T02:25:39;7.05;;;2.38;;
32399;SDS011;45045;45.440;9.178;2023-07-13T02:28:06;5.65;;;2.60;;
32399;SDS011;45045;45.440;9.178;2023-07-13T02:30:31;6.93;;;2.53;;
32399;SDS011;45045;45.440;9.178;2023-07-13T02:32:59;6.50;;;2.50;;
32399;SDS011;45045;45.440;9.178;2023-07-13T02:35:24;4.18;;;2.13;;
32399;SDS011;45045;45.440;9.178;2023-07-13T02:37:50;6.32;;;2.80;;
32399;SDS011;45045;45.440;9.178;2023-07-13T02:40:15;7.18;;;2.58;;
32399;SDS011;45045;45.440;9.178;2023-07-13T02:42:41;6.45;;;2.50;;
32399;SDS011;45045;45.440;9.178;2023-07-13T02:45:07;6.00;;;2.53;;
32399;SDS011;45045;45.440;9.178;2023-07-13T02:47:34;6.30;;;2.65;;
32399;SDS011;45045;45.440;9.178;2023-07-13T02:50:01;8.65;;;3.47;;
32399;SDS011;45045;45.440;9.178;2023-07-13T02:52:27;6.93;;;3.28;;
32399;SDS011;45045;45.440;9.178;2023-07-13T02:54:52;8.48;;;2.95;;
32399;SDS011;45045;45.440;9.178;2023-07-13T02:57:18;6.03;;;2.80;;
32399;SDS011;45045;45.440;9.178;2023-07-13T02:59:44;5.93;;;3.00;;
32399;SDS011;45045;45.440;9.178;2023-07-13T03:02:09;6.20;;;2.95;;
32399;SDS011;45045;45.440;9.178;2023-07-13T03:04:35;6.13;;;3.15;;
32399;SDS011;45045;45.440;9.178;2023-07-13T03:07:02;5.65;;;2.85;;
32399;SDS011;45045;45.440;9.178;2023-07-13T03:09:28;9.00;;;2.97;;
32399;SDS011;45045;45.440;9.178;2023-07-13T03:11:54;5.82;;;2.97;;
32399;SDS011;45045;45.440;9.178;2023-07-13T03:14:20;7.95;;;3.15;;
32399;SDS011;45045;45.440;9.178;2023-07-13T03:16:49;5.80;;;3.15;;
32399;SDS011;45045;45.440;9.178;2023-07-13T03:19:15;7.57;;;3.30;;
32399;SDS011;45045;45.440;9.178;2023-07-13T03:21:41;7.53;;;3.03;;
32399;SDS011;45045;45.440;9.178;2023-07-13T03:24:06;8.40;;;3.38;;
32399;SDS011;45045;45.440;9.178;2023-07-13T03:26:32;7.55;;;3.20;;
32399;SDS011;45045;45.440;9.178;2023-07-13T03:28:58;6.38;;;3.30;;
32399;SDS011;45045;45.440;9.178;2023-07-13T03:31:27;6.22;;;3.00;;
32399;SDS011;45045;45.440;9.178;2023-07-13T03:33:55;6.15;;;3.53;;
32399;SDS011;45045;45.440;9.178;2023-07-13T03:36:22;8.02;;;3.42;;
32399;SDS011;45045;45.440;9.178;2023-07-13T03:38:50;9.88;;;3.38;;
32399;SDS011;45045;45.440;9.178;2023-07-13T03:41:18;8.27;;;3.47;;
32399;SDS011;45045;45.440;9.178;2023-07-13T03:43:44;9.55;;;4.13;;
32399;SDS011;45045;45.440;9.178;2023-07-13T03:46:10;10.68;;;3.80;;
32399;SDS011;45045;45.440;9.178;2023-07-13T03:48:36;5.78;;;3.85;;
32399;SDS011;45045;45.440;9.178;2023-07-13T03:51:01;8.32;;;4.55;;
32399;SDS011;45045;45.440;9.178;2023-07-13T03:53:27;7.57;;;4.10;;
32399;SDS011;45045;45.440;9.178;2023-07-13T03:55:53;8.18;;;4.07;;
32399;SDS011;45045;45.440;9.178;2023-07-13T03:58:27;7.00;;;3.97;;
32399;SDS011;45045;45.440;9.178;2023-07-13T04:01:01;8.68;;;3.85;;
32399;SDS011;45045;45.440;9.178;2023-07-13T04:03:28;8.38;;;3.58;;
32399;SDS011;45045;45.440;9.178;2023-07-13T04:05:57;7.20;;;2.90;;
32399;SDS011;45045;45.440;9.178;2023-07-13T04:08:25;8.38;;;3.30;;
32399;SDS011;45045;45.440;9.178;2023-07-13T04:11:00;4.90;;;2.45;;
32399;SDS011;45045;45.440;9.178;2023-07-13T04:13:27;7.40;;;2.65;;
32399;SDS011;45045;45.440;9.178;2023-07-13T04:15:53;9.00;;;3.78;;
32399;SDS011;45045;45.440;9.178;2023-07-13T04:18:19;7.13;;;4.57;;
32399;SDS011;45045;45.440;9.178;2023-07-13T04:20:49;7.30;;;4.60;;
32399;SDS011;45045;45.440;9.178;2023-07-13T04:23:15;8.10;;;4.88;;
32399;SDS011;45045;45.440;9.178;2023-07-13T04:25:45;7.40;;;4.40;;
32399;SDS011;45045;45.440;9.178;2023-07-13T04:28:14;8.63;;;4.53;;
32399;SDS011;45045;45.440;9.178;2023-07-13T04:30:40;9.32;;;4.60;;
32399;SDS011;45045;45.440;9.178;2023-07-13T04:33:06;8.32;;;3.97;;
32399;SDS011;45045;45.440;9.178;2023-07-13T04:35:33;9.38;;;4.65;;
32399;SDS011;45045;45.440;9.178;2023-07-13T04:37:59;8.80;;;4.55;;
32399;SDS011;45045;45.440;9.178;2023-07-13T04:40:26;12.15;;;4.38;;
32399;SDS011;45045;45.440;9.178;2023-07-13T04:42:53;6.75;;;3.55;;
32399;SDS011;45045;45.440;9.178;2023-07-13T04:45:18;7.68;;;3.63;;
32399;SDS011;45045;45.440;9.178;2023-07-13T04:47:44;8.13;;;4.00;;
32399;SDS011;45045;45.440;9.178;2023-07-13T04:50:12;10.55;;;4.15;;
32399;SDS011;45045;45.440;9.178;2023-07-13T04:52:43;8.55;;;4.28;;
32399;SDS011;45045;45.440;9.178;2023-07-13T04:55:09;10.60;;;4.60;;
32399;SDS011;45045;45.440;9.178;2023-07-13T04:57:36;9.15;;;4.10;;
32399;SDS011;45045;45.440;9.178;2023-07-13T05:00:02;7.72;;;5.13;;
32399;SDS011;45045;45.440;9.178;2023-07-13T05:02:32;9.65;;;5.22;;
32399;SDS011;45045;45.440;9.178;2023-07-13T05:04:58;7.70;;;4.78;;
32399;SDS011;45045;45.440;9.178;2023-07-13T05:07:25;8.38;;;4.63;;
32399;SDS011;45045;45.440;9.178;2023-07-13T05:09:50;10.48;;;4.70;;
32399;SDS011;45045;45.440;9.178;2023-07-13T05:12:16;9.13;;;4.20;;
32399;SDS011;45045;45.440;9.178;2023-07-13T05:14:42;10.45;;;4.38;;
32399;SDS011;45045;45.440;9.178;2023-07-13T05:17:07;9.88;;;4.57;;
32399;SDS011;45045;45.440;9.178;2023-07-13T05:19:33;12.32;;;4.70;;
32399;SDS011;45045;45.440;9.178;2023-07-13T05:21:59;11.73;;;5.03;;
32399;SDS011;45045;45.440;9.178;2023-07-13T05:24:24;11.95;;;5.07;;
32399;SDS011;45045;45.440;9.178;2023-07-13T05:26:51;10.52;;;4.93;;
32399;SDS011;45045;45.440;9.178;2023-07-13T05:29:18;9.23;;;4.95;;
32399;SDS011;45045;45.440;9.178;2023-07-13T05:31:44;11.48;;;4.60;;
32399;SDS011;45045;45.440;9.178;2023-07-13T05:34:09;9.63;;;5.60;;
32399;SDS011;45045;45.440;9.178;2023-07-13T05:36:35;10.63;;;5.03;;
32399;SDS011;45045;45.440;9.178;2023-07-13T05:39:02;7.45;;;4.47;;
32399;SDS011;45045;45.440;9.178;2023-07-13T05:41:28;8.77;;;5.30;;
32399;SDS011;45045;45.440;9.178;2023-07-13T05:43:54;9.88;;;5.40;;
32399;SDS011;45045;45.440;9.178;2023-07-13T05:46:20;10.00;;;5.38;;
32399;SDS011;45045;45.440;9.178;2023-07-13T05:48:45;11.40;;;5.95;;
32399;SDS011;45045;45.440;9.178;2023-07-13T05:51:11;8.30;;;4.82;;
32399;SDS011;45045;45.440;9.178;2023-07-13T05:53:37;9.98;;;5.57;;
32399;SDS011;45045;45.440;9.178;2023-07-13T05:56:03;8.50;;;5.70;;
32399;SDS011;45045;45.440;9.178;2023-07-13T05:58:29;9.25;;;5.97;;
32399;SDS011;45045;45.440;9.178;2023-07-13T06:01:03;10.52;;;5.80;;
32399;SDS011;45045;45.440;9.178;2023-07-13T06:03:35;12.40;;;6.25;;
32399;SDS011;45045;45.440;9.178;2023-07-13T06:06:03;12.25;;;5.80;;
32399;SDS011;45045;45.440;9.178;2023-07-13T06:08:30;14.75;;;6.53;;
32399;SDS011;45045;45.440;9.178;2023-07-13T06:11:01;13.25;;;6.05;;
32399;SDS011;45045;45.440;9.178;2023-07-13T06:13:37;12.85;;;6.57;;
32399;SDS011;45045;45.440;9.178;2023-07-13T06:16:03;12.18;;;6.18;;
32399;SDS011;45045;45.440;9.178;2023-07-13T06:18:33;14.33;;;6.20;;
32399;SDS011;45045;45.440;9.178;2023-07-13T06:20:59;10.55;;;6.03;;
32399;SDS011;45045;45.440;9.178;2023-07-13T06:23:26;10.85;;;5.75;;
32399;SDS011;45045;45.440;9.178;2023-07-13T06:25:51;9.65;;;4.90;;
32399;SDS011;45045;45.440;9.178;2023-07-13T06:28:17;8.30;;;4.22;;
32399;SDS011;45045;45.440;9.178;2023-07-13T06:30:42;10.25;;;4.35;;
32399;SDS011;45045;45.440;9.178;2023-07-13T06:33:08;7.68;;;3.88;;
32399;SDS011;45045;45.440;9.178;2023-07-13T06:35:34;7.70;;;3.47;;
32399;SDS011;45045;45.440;9.178;2023-07-13T06:37:59;8.70;;;3.60;;
32399;SDS011;45045;45.440;9.178;2023-07-13T06:40:25;6.90;;;3.47;;
32399;SDS011;45045;45.440;9.178;2023-07-13T06:42:53;4.80;;;2.85;;
32399;SDS011;45045;45.440;9.178;2023-07-13T06:45:18;8.18;;;2.30;;
32399;SDS011;45045;45.440;9.178;2023-07-13T06:47:44;8.30;;;2.20;;
32399;SDS011;45045;45.440;9.178;2023-07-13T06:50:09;6.25;;;1.63;;
32399;SDS011;45045;45.440;9.178;2023-07-13T06:52:35;6.32;;;1.73;;
32399;SDS011;45045;45.440;9.178;2023-07-13T06:55:01;5.32;;;1.80;;
32399;SDS011;45045;45.440;9.178;2023-07-13T06:57:27;5.30;;;1.70;;
32399;SDS011;45045;45.440;9.178;2023-07-13T06:59:52;4.63;;;1.65;;
32399;SDS011;45045;45.440;9.178;2023-07-13T07:02:18;5.18;;;1.42;;
32399;SDS011;45045;45.440;9.178;2023-07-13T07:04:43;4.57;;;1.52;;
32399;SDS011;45045;45.440;9.178;2023-07-13T07:07:09;4.32;;;1.70;;
32399;SDS011;45045;45.440;9.178;2023-07-13T07:09:35;7.72;;;1.40;;
32399;SDS011;45045;45.440;9.178;2023-07-13T07:12:00;5.03;;;1.63;;
32399;SDS011;45045;45.440;9.178;2023-07-13T07:14:27;4.03;;;1.55;;
32399;SDS011;45045;45.440;9.178;2023-07-13T07:16:52;4.25;;;1.70;;
32399;SDS011;45045;45.440;9.178;2023-07-13T07:19:18;5.88;;;1.67;;
32399;SDS011;45045;45.440;9.178;2023-07-13T07:21:44;5.57;;;2.10;;
32399;SDS011;45045;45.440;9.178;2023-07-13T07:24:09;11.43;;;2.33;;
32399;SDS011;45045;45.440;9.178;2023-07-13T07:26:35;7.80;;;1.95;;
32399;SDS011;45045;45.440;9.178;2023-07-13T07:29:01;5.55;;;1.52;;
32399;SDS011;45045;45.440;9.178;2023-07-13T07:31:26;4.53;;;1.90;;
32399;SDS011;45045;45.440;9.178;2023-07-13T07:33:52;7.30;;;2.05;;
32399;SDS011;45045;45.440;9.178;2023-07-13T07:36:17;11.55;;;1.95;;
32399;SDS011;45045;45.440;9.178;2023-07-13T07:38:43;9.32;;;1.90;;
32399;SDS011;45045;45.440;9.178;2023-07-13T07:41:09;5.82;;;2.05;;
32399;SDS011;45045;45.440;9.178;2023-07-13T07:43:37;6.63;;;2.17;;
32399;SDS011;45045;45.440;9.178;2023-07-13T07:46:03;10.88;;;2.28;;
32399;SDS011;45045;45.440;9.178;2023-07-13T07:48:29;6.03;;;2.42;;
32399;SDS011;45045;45.440;9.178;2023-07-13T07:50:54;8.52;;;2.15;;
32399;SDS011;45045;45.440;9.178;2023-07-13T07:53:20;10.32;;;2.33;;
32399;SDS011;45045;45.440;9.178;2023-07-13T07:55:46;6.10;;;2.20;;
32399;SDS011;45045;45.440;9.178;2023-07-13T07:58:12;6.68;;;2.17;;
32399;SDS011;45045;45.440;9.178;2023-07-13T08:00:38;6.60;;;2.00;;
32399;SDS011;45045;45.440;9.178;2023-07-13T08:03:03;6.35;;;1.75;;
32399;SDS011;45045;45.440;9.178;2023-07-13T08:05:29;6.10;;;2.10;;
32399;SDS011;45045;45.440;9.178;2023-07-13T08:07:55;9.38;;;2.25;;
32399;SDS011;45045;45.440;9.178;2023-07-13T08:10:20;9.82;;;2.30;;
32399;SDS011;45045;45.440;9.178;2023-07-13T08:12:46;5.18;;;2.03;;
32399;SDS011;45045;45.440;9.178;2023-07-13T08:15:13;6.40;;;1.77;;
32399;SDS011;45045;45.440;9.178;2023-07-13T08:17:41;8.05;;;2.80;;
32399;SDS011;45045;45.440;9.178;2023-07-13T08:20:07;6.65;;;2.08;;
32399;SDS011;45045;45.440;9.178;2023-07-13T08:22:34;5.15;;;2.10;;
32399;SDS011;45045;45.440;9.178;2023-07-13T08:25:00;6.60;;;2.45;;
32399;SDS011;45045;45.440;9.178;2023-07-13T08:27:26;8.60;;;2.10;;
32399;SDS011;45045;45.440;9.178;2023-07-13T08:29:53;6.50;;;1.90;;
32399;SDS011;45045;45.440;9.178;2023-07-13T08:32:19;6.10;;;1.80;;
32399;SDS011;45045;45.440;9.178;2023-07-13T08:34:46;4.22;;;2.03;;
32399;SDS011;45045;45.440;9.178;2023-07-13T08:37:12;6.82;;;2.42;;
32399;SDS011;45045;45.440;9.178;2023-07-13T08:39:38;8.50;;;3.40;;
32399;SDS011;45045;45.440;9.178;2023-07-13T08:42:05;6.82;;;3.90;;
32399;SDS011;45045;45.440;9.178;2023-07-13T08:47:22;8.27;;;4.35;;
32399;SDS011;45045;45.440;9.178;2023-07-13T08:49:49;9.50;;;4.38;;
32399;SDS011;45045;45.440;9.178;2023-07-13T08:54:44;8.32;;;2.85;;
32399;SDS011;45045;45.440;9.178;2023-07-13T08:57:17;4.57;;;2.13;;
32399;SDS011;45045;45.440;9.178;2023-07-13T08:59:45;4.55;;;1.80;;
32399;SDS011;45045;45.440;9.178;2023-07-13T09:04:55;8.40;;;2.40;;
32399;SDS011;45045;45.440;9.178;2023-07-13T09:10:27;11.32;;;3.88;;
32399;SDS011;45045;45.440;9.178;2023-07-13T09:15:44;6.82;;;3.70;;
32399;SDS011;45045;45.440;9.178;2023-07-13T09:18:11;6.95;;;3.42;;
32399;SDS011;45045;45.440;9.178;2023-07-13T09:21:15;6.50;;;3.10;;
32399;SDS011;45045;45.440;9.178;2023-07-13T09:23:45;5.90;;;3.25;;
32399;SDS011;45045;45.440;9.178;2023-07-13T09:28:42;7.80;;;2.90;;
32399;SDS011;45045;45.440;9.178;2023-07-13T09:31:33;7.72;;;2.83;;
32399;SDS011;45045;45.440;9.178;2023-07-13T09:34:02;6.18;;;3.10;;
32399;SDS011;45045;45.440;9.178;2023-07-13T09:36:30;6.40;;;2.83;;
32399;SDS011;45045;45.440;9.178;2023-07-13T09:41:37;8.77;;;4.25;;
32399;SDS011;45045;45.440;9.178;2023-07-13T09:46:39;5.80;;;3.80;;
32399;SDS011;45045;45.440;9.178;2023-07-13T09:49:10;7.45;;;2.67;;
32399;SDS011;45045;45.440;9.178;2023-07-13T09:51:37;5.78;;;2.50;;
32399;SDS011;45045;45.440;9.178;2023-07-13T09:54:05;7.93;;;2.70;;
32399;SDS011;45045;45.440;9.178;2023-07-13T09:56:30;5.78;;;2.55;;
32399;SDS011;45045;45.440;9.178;2023-07-13T09:58:57;7.05;;;2.38;;
32399;SDS011;45045;45.440;9.178;2023-07-13T10:01:37;4.88;;;2.30;;
32399;SDS011;45045;45.440;9.178;2023-07-13T10:04:10;7.93;;;3.17;;
32399;SDS011;45045;45.440;9.178;2023-07-13T10:06:40;6.97;;;2.90;;
32399;SDS011;45045;45.440;9.178;2023-07-13T10:09:08;4.50;;;2.20;;
32399;SDS011;45045;45.440;9.178;2023-07-13T10:11:34;5.47;;;2.38;;
32399;SDS011;45045;45.440;9.178;2023-07-13T10:14:09;7.15;;;2.78;;
32399;SDS011;45045;45.440;9.178;2023-07-13T10:16:38;6.68;;;2.75;;
32399;SDS011;45045;45.440;9.178;2023-07-13T10:21:56;6.80;;;3.45;;
32399;SDS011;45045;45.440;9.178;2023-07-13T10:24:27;7.65;;;2.92;;
32399;SDS011;45045;45.440;9.178;2023-07-13T10:27:10;5.25;;;1.98;;
32399;SDS011;45045;45.440;9.178;2023-07-13T10:29:47;5.13;;;1.98;;
32399;SDS011;45045;45.440;9.178;2023-07-13T10:32:16;4.97;;;1.92;;
32399;SDS011;45045;45.440;9.178;2023-07-13T10:34:47;9.07;;;1.97;;
32399;SDS011;45045;45.440;9.178;2023-07-13T10:37:24;8.48;;;2.80;;
32399;SDS011;45045;45.440;9.178;2023-07-13T10:39:54;8.25;;;3.10;;
32399;SDS011;45045;45.440;9.178;2023-07-13T10:42:29;7.07;;;2.75;;
32399;SDS011;45045;45.440;9.178;2023-07-13T10:44:58;7.47;;;3.35;;
32399;SDS011;45045;45.440;9.178;2023-07-13T10:47:24;7.47;;;2.85;;
32399;SDS011;45045;45.440;9.178;2023-07-13T10:49:52;7.32;;;3.05;;
32399;SDS011;45045;45.440;9.178;2023-07-13T10:55:30;10.18;;;2.92;;
32399;SDS011;45045;45.440;9.178;2023-07-13T10:58:12;9.75;;;3.60;;
32399;SDS011;45045;45.440;9.178;2023-07-13T11:00:49;5.85;;;2.78;;
32399;SDS011;45045;45.440;9.178;2023-07-13T11:03:18;8.02;;;3.42;;
32399;SDS011;45045;45.440;9.178;2023-07-13T11:05:51;5.80;;;2.70;;
32399;SDS011;45045;45.440;9.178;2023-07-13T11:08:34;8.50;;;3.42;;
32399;SDS011;45045;45.440;9.178;2023-07-13T11:11:31;7.05;;;3.15;;
32399;SDS011;45045;45.440;9.178;2023-07-13T11:21:27;6.13;;;2.28;;
32399;SDS011;45045;45.440;9.178;2023-07-13T11:31:43;6.10;;;2.53;;
32399;SDS011;45045;45.440;9.178;2023-07-13T11:34:30;8.35;;;2.67;;
32399;SDS011;45045;45.440;9.178;2023-07-13T11:37:00;6.00;;;2.10;;
32399;SDS011;45045;45.440;9.178;2023-07-13T11:39:30;6.18;;;2.30;;
32399;SDS011;45045;45.440;9.178;2023-07-13T11:42:09;6.55;;;2.50;;
32399;SDS011;45045;45.440;9.178;2023-07-13T11:44:41;7.25;;;2.50;;
32399;SDS011;45045;45.440;9.178;2023-07-13T11:47:09;44.83;;;5.87;;
32399;SDS011;45045;45.440;9.178;2023-07-13T11:49:48;26.13;;;5.75;;
32399;SDS011;45045;45.440;9.178;2023-07-13T11:52:17;5.07;;;1.90;;
32399;SDS011;45045;45.440;9.178;2023-07-13T11:54:50;8.18;;;3.47;;
32399;SDS011;45045;45.440;9.178;2023-07-13T11:57:33;6.63;;;2.80;;
32399;SDS011;45045;45.440;9.178;2023-07-13T12:00:09;7.07;;;2.65;;
32399;SDS011;45045;45.440;9.178;2023-07-13T12:02:40;12.95;;;9.15;;
32399;SDS011;45045;45.440;9.178;2023-07-13T12:05:13;21.02;;;13.68;;
32399;SDS011;45045;45.440;9.178;2023-07-13T12:07:42;9.05;;;3.65;;
32399;SDS011;45045;45.440;9.178;2023-07-13T12:12:50;7.30;;;3.92;;
32399;SDS011;45045;45.440;9.178;2023-07-13T12:15:16;7.88;;;4.10;;
32399;SDS011;45045;45.440;9.178;2023-07-13T12:17:42;9.65;;;4.90;;
32399;SDS011;45045;45.440;9.178;2023-07-13T12:20:18;7.97;;;3.45;;
32399;SDS011;45045;45.440;9.178;2023-07-13T12:22:49;10.95;;;3.92;;
32399;SDS011;45045;45.440;9.178;2023-07-13T12:25:15;6.35;;;2.38;;
32399;SDS011;45045;45.440;9.178;2023-07-13T12:27:42;8.48;;;3.53;;
32399;SDS011;45045;45.440;9.178;2023-07-13T12:30:23;10.30;;;2.67;;
32399;SDS011;45045;45.440;9.178;2023-07-13T12:33:16;7.13;;;2.63;;
32399;SDS011;45045;45.440;9.178;2023-07-13T12:35:44;15.63;;;2.97;;
32399;SDS011;45045;45.440;9.178;2023-07-13T12:38:12;10.90;;;3.00;;
32399;SDS011;45045;45.440;9.178;2023-07-13T12:40:39;7.88;;;3.50;;
32399;SDS011;45045;45.440;9.178;2023-07-13T12:43:09;8.05;;;2.78;;
32399;SDS011;45045;45.440;9.178;2023-07-13T12:48:29;7.30;;;2.92;;
32399;SDS011;45045;45.440;9.178;2023-07-13T12:51:02;8.23;;;2.60;;
32399;SDS011;45045;45.440;9.178;2023-07-13T12:53:28;6.00;;;2.63;;
32399;SDS011;45045;45.440;9.178;2023-07-13T12:55:57;5.57;;;2.28;;
32399;SDS011;45045;45.440;9.178;2023-07-13T12:59:01;7.13;;;2.15;;
32399;SDS011;45045;45.440;9.178;2023-07-13T13:01:22;8.68;;;3.30;;
32399;SDS011;45045;45.440;9.178;2023-07-13T13:03:52;10.77;;;3.08;;
32399;SDS011;45045;45.440;9.178;2023-07-13T13:06:23;9.13;;;3.00;;
32399;SDS011;45045;45.440;9.178;2023-07-13T13:08:52;8.23;;;2.70;;
32399;SDS011;45045;45.440;9.178;2023-07-13T13:11:20;6.22;;;2.55;;
32399;SDS011;45045;45.440;9.178;2023-07-13T13:13:48;8.10;;;3.25;;
32399;SDS011;45045;45.440;9.178;2023-07-13T13:18:54;7.30;;;3.15;;
32399;SDS011;45045;45.440;9.178;2023-07-13T13:21:24;7.68;;;2.97;;
32399;SDS011;45045;45.440;9.178;2023-07-13T13:23:51;8.25;;;2.85;;
32399;SDS011;45045;45.440;9.178;2023-07-13T13:26:18;9.85;;;3.10;;
32399;SDS011;45045;45.440;9.178;2023-07-13T13:28:44;9.32;;;3.13;;
32399;SDS011;45045;45.440;9.178;2023-07-13T13:31:11;7.10;;;2.58;;
32399;SDS011;45045;45.440;9.178;2023-07-13T13:33:38;7.28;;;2.95;;
32399;SDS011;45045;45.440;9.178;2023-07-13T13:36:18;8.23;;;3.30;;
32399;SDS011;45045;45.440;9.178;2023-07-13T13:38:47;13.38;;;3.72;;
32399;SDS011;45045;45.440;9.178;2023-07-13T13:41:15;27.45;;;4.75;;
32399;SDS011;45045;45.440;9.178;2023-07-13T13:43:41;21.52;;;4.00;;
32399;SDS011;45045;45.440;9.178;2023-07-13T13:46:19;19.48;;;4.28;;
32399;SDS011;45045;45.440;9.178;2023-07-13T13:51:22;19.40;;;6.53;;
32399;SDS011;45045;45.440;9.178;2023-07-13T13:53:49;11.73;;;4.60;;
32399;SDS011;45045;45.440;9.178;2023-07-13T13:56:15;11.73;;;6.13;;
32399;SDS011;45045;45.440;9.178;2023-07-13T13:58:43;15.20;;;8.23;;
32399;SDS011;45045;45.440;9.178;2023-07-13T14:01:19;10.05;;;4.93;;
32399;SDS011;45045;45.440;9.178;2023-07-13T14:03:47;8.07;;;3.60;;
32399;SDS011;45045;45.440;9.178;2023-07-13T14:06:19;9.98;;;4.55;;
32399;SDS011;45045;45.440;9.178;2023-07-13T14:08:45;10.05;;;4.30;;
32399;SDS011;45045;45.440;9.178;2023-07-13T14:11:12;12.38;;;5.13;;
32399;SDS011;45045;45.440;9.178;2023-07-13T14:13:44;9.80;;;4.05;;
32399;SDS011;45045;45.440;9.178;2023-07-13T14:16:18;7.90;;;3.58;;
32399;SDS011;45045;45.440;9.178;2023-07-13T14:18:46;9.75;;;4.38;;
32399;SDS011;45045;45.440;9.178;2023-07-13T14:21:17;10.65;;;4.07;;
32399;SDS011;45045;45.440;9.178;2023-07-13T14:23:45;10.27;;;4.22;;
32399;SDS011;45045;45.440;9.178;2023-07-13T14:26:12;11.57;;;3.83;;
32399;SDS011;45045;45.440;9.178;2023-07-13T14:28:47;13.10;;;4.57;;
32399;SDS011;45045;45.440;9.178;2023-07-13T14:31:15;8.55;;;4.80;;
32399;SDS011;45045;45.440;9.178;2023-07-13T14:33:41;10.43;;;3.95;;
32399;SDS011;45045;45.440;9.178;2023-07-13T14:38:54;5.38;;;3.33;;
32399;SDS011;45045;45.440;9.178;2023-07-13T14:41:20;13.77;;;3.63;;
32399;SDS011;45045;45.440;9.178;2023-07-13T14:43:46;12.60;;;4.05;;
32399;SDS011;45045;45.440;9.178;2023-07-13T14:46:33;8.85;;;3.10;;
32399;SDS011;45045;45.440;9.178;2023-07-13T14:49:04;9.70;;;3.58;;
32399;SDS011;45045;45.440;9.178;2023-07-13T14:51:37;11.35;;;4.00;;
32399;SDS011;45045;45.440;9.178;2023-07-13T14:54:04;10.55;;;3.72;;
32399;SDS011;45045;45.440;9.178;2023-07-13T14:56:31;10.25;;;3.60;;
32399;SDS011;45045;45.440;9.178;2023-07-13T14:58:56;9.70;;;3.70;;
32399;SDS011;45045;45.440;9.178;2023-07-13T15:01:22;11.10;;;3.75;;
32399;SDS011;45045;45.440;9.178;2023-07-13T15:03:50;11.68;;;3.63;;
32399;SDS011;45045;45.440;9.178;2023-07-13T15:06:17;9.02;;;3.45;;
32399;SDS011;45045;45.440;9.178;2023-07-13T15:08:48;8.20;;;3.40;;
32399;SDS011;45045;45.440;9.178;2023-07-13T15:11:14;8.30;;;3.90;;
32399;SDS011;45045;45.440;9.178;2023-07-13T15:13:41;9.57;;;3.72;;
32399;SDS011;45045;45.440;9.178;2023-07-13T15:16:13;8.63;;;3.40;;
32399;SDS011;45045;45.440;9.178;2023-07-13T15:18:43;12.75;;;3.63;;
32399;SDS011;45045;45.440;9.178;2023-07-13T15:21:11;8.88;;;4.10;;
32399;SDS011;45045;45.440;9.178;2023-07-13T15:23:39;7.32;;;3.60;;
32399;SDS011;45045;45.440;9.178;2023-07-13T15:26:07;7.50;;;2.92;;
32399;SDS011;45045;45.440;9.178;2023-07-13T15:28:36;10.40;;;3.47;;
32399;SDS011;45045;45.440;9.178;2023-07-13T15:31:04;10.73;;;4.22;;
32399;SDS011;45045;45.440;9.178;2023-07-13T15:33:47;9.60;;;3.70;;
32399;SDS011;45045;45.440;9.178;2023-07-13T15:36:14;7.63;;;3.65;;
32399;SDS011;45045;45.440;9.178;2023-07-13T15:38:42;8.63;;;3.55;;
32399;SDS011;45045;45.440;9.178;2023-07-13T15:41:17;12.80;;;4.05;;
32399;SDS011;45045;45.440;9.178;2023-07-13T15:43:45;8.90;;;3.67;;
32399;SDS011;45045;45.440;9.178;2023-07-13T15:46:11;10.52;;;3.97;;
32399;SDS011;45045;45.440;9.178;2023-07-13T15:48:37;9.95;;;3.78;;
32399;SDS011;45045;45.440;9.178;2023-07-13T15:51:03;13.70;;;3.90;;